Shell Knob, MO (65747)

02:26 PM CDT del 16 Settembre 2014 (GMT -0500)
Cruise Inn | Change Station
CLOSE
Current Station
Stazione meteo personale
Location: Kimberling City, MO
Altitudine: 1132 ft
Stazioni meteo nelle vicinanze

Alt. 1132 ft 36.60 °N, 93.42 °W | Updated 14 seconds ago

Coperto
Coperto
68.9 °F
Sembra 68.9 °F
N
1.6
Vento Variabile Vento da NNE
Gusts 3.8 mph

Oggi
Massima -- | Minima -- °F
--% Possibilità di precip.
Ieri
Massima -- | Minima -- °F
Precip. -- in
6:57 AM 7:20 PM
Ultimo quarto, 43% visible
Pressione 30.15 in
Visibilità 10.0 miglia
Nuvole Coperto 1400 ft
Punto di rugiada 62 °F
Umidità 80%
Piovosità 0.00 in
Spessore del manto nevoso Non disponibile.
Raggi UV 0.0 fuori da 12
Polline 6.30 fuori da 12
Qualità dell'aria Non disponibile.
Flu Activity Non disponibile.
METAR KFWB 161915Z AUTO 13005KT 10SM OVC014 19/16 A3015 RMK AO2

More Conditions Fewer Conditions

Pressione 30.15 in
Visibilità 10.0 miglia
Nuvole Coperto 1400 ft
Punto di rugiada 62 °F
Umidità 80%
Piovosità 0.00 in
Spessore del manto nevoso Non disponibile.
Raggi UV 0.0 fuori da 12
Polline 6.30 fuori da 12
Qualità dell'aria Non disponibile.
Flu Activity Non disponibile.
METAR KFWB 161915Z AUTO 13005KT 10SM OVC014 19/16 A3015 RMK AO2

More Conditions Fewer Conditions

10-Day Weather Forecast

Almanac

Astronomia

Sep. 16, 2014 Alba Tramonto
Ora attuale 06:57 CDT 19:20 CDT
Crepuscolo civile 06:31 CDT 19:46 CDT
Crepuscolo nautico 06:01 CDT 20:16 CDT
Crepuscolo astronomico 05:30 CDT 20:47 CDT
Luna 00:14 CDT 14:37 CDT
Estensione della luce visibile 13h 14m
Lunghezza del giorno
12h 22m
Tomorrow will be 2m 18s shorter.
Ultimo quarto, 43% of the Moon is Illuminated
Oggi
Ultimo quarto
Set 24
Nuovo
Ott 1
Primo quarto
Ott 8
Luna piena
Ott 15
Ultimo quarto

Gli estremi di oggi

State Highs State Lows

Community

WunderPhotos

Upload Photos

1,753,860 foto caricate!

WunderBlogs® & News

Nearby

Profondità neve

Stazione Profondità Altitudine
Non sono state evidenziate nuove nevicate

Attività sismica

Città  Distanza Mag. Data & Ora
Non sono state riportate attività sismiche nelle vicinanze.
Minimo Magnitudo Mostrato è 2.5.

Temperature delle acque costiere

Località Temperatura
Nessun dato dalle stazioni

Stazioni meteo nelle vicinanze